createdAt,value
2023-03-14T00:00:48.690Z,1.50
2023-03-14T00:02:53.168Z,1.27
2023-03-14T00:04:55.647Z,1.40
2023-03-14T00:06:57.219Z,1.17
2023-03-14T00:08:58.792Z,1.10
2023-03-14T00:11:05.725Z,1.30
2023-03-14T00:13:07.496Z,1.30
2023-03-14T00:15:09.981Z,1.20
2023-03-14T00:17:13.054Z,1.20
2023-03-14T00:19:14.845Z,0.97
2023-03-14T00:21:16.527Z,1.10
2023-03-14T00:23:18.126Z,1.17
2023-03-14T00:25:19.892Z,1.20
2023-03-14T00:27:21.515Z,1.10
2023-03-14T00:29:23.413Z,1.50
2023-03-14T00:31:24.940Z,1.10
2023-03-14T00:33:27.871Z,1.37
2023-03-14T00:35:29.460Z,1.40
2023-03-14T00:37:31.009Z,1.10
2023-03-14T00:39:32.564Z,1.40
2023-03-14T00:41:34.256Z,1.07
2023-03-14T00:43:36.117Z,1.50
2023-03-14T00:45:37.705Z,1.20
2023-03-14T00:47:39.275Z,1.20
2023-03-14T00:49:42.215Z,1.23
2023-03-14T00:51:44.190Z,1.05
2023-03-14T00:53:45.843Z,1.35
2023-03-14T00:55:47.636Z,1.10
2023-03-14T00:57:49.237Z,1.30
2023-03-14T00:59:51.900Z,1.20
2023-03-14T01:01:53.479Z,1.43
2023-03-14T01:03:56.204Z,1.50
2023-03-14T01:06:10.116Z,1.40
2023-03-14T01:08:11.994Z,1.20
2023-03-14T01:10:13.833Z,1.00
2023-03-14T01:12:15.545Z,1.25
2023-03-14T01:14:17.314Z,1.13
2023-03-14T01:16:20.702Z,1.30
2023-03-14T01:18:22.331Z,1.13
2023-03-14T01:20:23.899Z,1.00
2023-03-14T01:22:26.982Z,0.90
2023-03-14T01:24:28.551Z,1.20
2023-03-14T01:26:32.423Z,1.10
2023-03-14T01:28:34.068Z,1.20
2023-03-14T01:30:35.703Z,0.90
2023-03-14T01:32:37.879Z,1.20
2023-03-14T01:34:39.782Z,1.27
2023-03-14T01:36:41.386Z,1.60
2023-03-14T01:38:44.574Z,1.47
2023-03-14T01:40:46.182Z,1.30
2023-03-14T01:42:54.783Z,1.40
2023-03-14T01:44:58.245Z,1.48
2023-03-14T01:46:59.817Z,1.60
2023-03-14T01:49:07.159Z,1.73
2023-03-14T01:51:15.358Z,2.40
2023-03-14T01:53:17.701Z,1.87
2023-03-14T01:55:25.420Z,2.23
2023-03-14T01:57:31.132Z,2.10
2023-03-14T01:59:35.353Z,2.00
2023-03-14T02:01:39.000Z,1.73
2023-03-14T02:03:48.226Z,2.03
2023-03-14T02:05:51.431Z,1.60
2023-03-14T02:07:55.331Z,2.25
2023-03-14T02:09:59.785Z,1.60
2023-03-14T02:12:02.865Z,1.50
2023-03-14T02:14:04.843Z,1.70
2023-03-14T02:16:07.566Z,2.00
2023-03-14T02:18:10.834Z,2.03
2023-03-14T02:20:25.592Z,2.23
2023-03-14T02:22:27.217Z,1.50
2023-03-14T02:24:35.841Z,1.55
2023-03-14T02:26:42.662Z,1.87
2023-03-14T02:28:45.745Z,2.63
2023-03-14T02:30:47.682Z,1.60
2023-03-14T02:32:52.678Z,1.90
2023-03-14T02:34:57.305Z,2.20
2023-03-14T02:36:59.812Z,1.50
2023-03-14T02:39:11.783Z,1.30
2023-03-14T02:41:13.965Z,1.80
2023-03-14T02:43:15.508Z,1.60
2023-03-14T02:45:43.831Z,1.60
2023-03-14T02:47:49.927Z,1.42
2023-03-14T02:49:55.336Z,2.60
2023-03-14T02:51:56.900Z,2.20
2023-03-14T02:53:58.632Z,1.45
2023-03-14T02:56:00.888Z,1.27
2023-03-14T02:58:02.436Z,1.75
2023-03-14T03:00:05.466Z,2.57
2023-03-14T03:02:08.388Z,1.70
2023-03-14T03:04:09.949Z,1.47
2023-03-14T03:06:11.525Z,1.70
2023-03-14T03:08:13.086Z,1.92
2023-03-14T03:10:14.963Z,2.90
2023-03-14T03:12:16.635Z,2.67
2023-03-14T03:14:18.185Z,2.03
2023-03-14T03:16:19.833Z,2.50
2023-03-14T03:18:22.767Z,2.70
2023-03-14T03:20:24.361Z,2.80
2023-03-14T03:22:26.010Z,2.00
2023-03-14T03:24:27.760Z,2.38
2023-03-14T03:26:29.276Z,2.10
2023-03-14T03:28:30.876Z,2.70
2023-03-14T03:30:32.456Z,2.55
2023-03-14T03:32:34.160Z,2.40
2023-03-14T03:34:37.527Z,2.83
2023-03-14T03:36:39.066Z,2.40
2023-03-14T03:38:40.559Z,2.70
2023-03-14T03:40:43.492Z,2.77
2023-03-14T03:42:45.027Z,2.33
2023-03-14T03:44:46.560Z,2.33
2023-03-14T03:46:48.216Z,1.60
2023-03-14T03:48:49.892Z,2.10
2023-03-14T03:50:52.924Z,2.17
2023-03-14T03:52:54.509Z,1.70
2023-03-14T03:54:56.069Z,2.10
2023-03-14T03:56:57.626Z,1.60
2023-03-14T03:58:59.191Z,1.65
2023-03-14T04:01:00.757Z,1.40
2023-03-14T04:03:02.538Z,1.70
2023-03-14T04:05:04.393Z,1.70
2023-03-14T04:07:07.459Z,1.83
2023-03-14T04:09:09.125Z,1.77
2023-03-14T04:11:11.549Z,2.07
2023-03-14T04:13:13.066Z,2.40
2023-03-14T04:15:14.995Z,3.25
2023-03-14T04:17:16.768Z,2.30
2023-03-14T04:19:18.315Z,2.08
2023-03-14T04:21:20.109Z,1.80
2023-03-14T04:23:24.317Z,2.40
2023-03-14T04:25:25.885Z,2.10
2023-03-14T04:27:27.415Z,1.60
2023-03-14T04:29:28.994Z,2.27
2023-03-14T04:31:30.617Z,2.37
2023-03-14T04:33:32.162Z,1.87
2023-03-14T04:35:34.429Z,2.05
2023-03-14T04:37:36.419Z,1.80
2023-03-14T04:39:39.785Z,1.98
2023-03-14T04:41:41.407Z,1.63
2023-03-14T04:43:42.968Z,1.77
2023-03-14T04:45:44.499Z,1.90
2023-03-14T04:47:46.064Z,1.30
2023-03-14T04:49:47.602Z,1.33
2023-03-14T04:51:49.330Z,1.70
2023-03-14T04:53:50.959Z,1.20
2023-03-14T04:55:56.129Z,1.50
2023-03-14T04:57:57.733Z,1.87
2023-03-14T04:59:59.312Z,1.25
2023-03-14T05:02:00.968Z,1.80
2023-03-14T05:04:07.191Z,1.77
2023-03-14T05:06:16.776Z,1.77
2023-03-14T05:08:21.128Z,1.47
2023-03-14T05:10:25.528Z,1.90
2023-03-14T05:12:31.516Z,2.00
2023-03-14T05:14:36.111Z,1.30
2023-03-14T05:16:40.594Z,1.55
2023-03-14T05:18:51.778Z,1.30
2023-03-14T05:21:30.272Z,2.00
2023-03-14T05:23:34.687Z,1.57
2023-03-14T05:25:39.164Z,1.75
2023-03-14T05:27:59.790Z,1.30
2023-03-14T05:30:01.727Z,1.73
2023-03-14T05:32:06.187Z,1.25
2023-03-14T05:37:13.146Z,1.40
2023-03-14T05:39:18.177Z,1.30
2023-03-14T05:41:19.747Z,1.37
2023-03-14T05:43:33.458Z,1.60
2023-03-14T05:45:47.165Z,1.53
2023-03-14T05:48:41.139Z,1.20
2023-03-14T05:51:01.297Z,1.70
2023-03-14T05:53:12.025Z,1.40
2023-03-14T05:55:56.821Z,1.55
2023-03-14T05:58:08.655Z,1.67
2023-03-14T06:00:18.239Z,1.50
2023-03-14T06:04:59.651Z,1.60
2023-03-14T06:07:03.870Z,1.40
2023-03-14T06:09:29.824Z,1.47
2023-03-14T06:11:48.749Z,1.52
2023-03-14T06:14:18.071Z,1.40
2023-03-14T06:16:36.888Z,1.50
2023-03-14T06:18:39.250Z,1.87
2023-03-14T06:21:23.897Z,1.33
2023-03-14T06:26:39.931Z,1.40
2023-03-14T06:28:59.465Z,1.33
2023-03-14T06:31:25.956Z,1.50
2023-03-14T06:33:28.858Z,1.30
2023-03-14T06:39:01.559Z,1.50
2023-03-14T06:47:19.182Z,1.97
2023-03-14T06:50:07.926Z,1.77
2023-03-14T06:52:05.474Z,1.87
2023-03-14T06:54:10.497Z,1.63
2023-03-14T06:56:18.228Z,1.87
2023-03-14T06:58:57.022Z,1.70
2023-03-14T07:01:21.081Z,1.63
2023-03-14T07:03:54.396Z,2.33
2023-03-14T07:06:17.024Z,3.30
2023-03-14T07:08:27.938Z,1.70
2023-03-14T07:10:29.523Z,1.60
2023-03-14T07:12:37.068Z,1.75
2023-03-14T07:14:45.557Z,1.37
2023-03-14T07:16:50.018Z,2.37
2023-03-14T07:19:06.358Z,1.60
2023-03-14T07:26:11.666Z,2.43
2023-03-14T07:28:16.164Z,2.50
2023-03-14T07:30:52.778Z,2.33
2023-03-14T07:32:54.424Z,2.92
2023-03-14T07:35:41.728Z,2.53
2023-03-14T07:38:15.514Z,2.07
2023-03-14T07:40:27.506Z,1.95
2023-03-14T07:42:52.013Z,1.85
2023-03-14T07:47:18.241Z,1.70
2023-03-14T07:49:28.891Z,1.80
2023-03-14T07:51:33.769Z,1.33
2023-03-14T07:53:51.799Z,1.45
2023-03-14T07:55:56.085Z,1.90
2023-03-14T08:01:03.562Z,1.83
2023-03-14T08:03:05.176Z,1.80
2023-03-14T08:05:40.410Z,1.35
2023-03-14T08:07:42.561Z,1.40
2023-03-14T08:09:49.897Z,1.50
2023-03-14T08:12:40.395Z,1.23
2023-03-14T08:17:00.571Z,1.13
2023-03-14T08:19:05.165Z,1.60
2023-03-14T08:21:10.055Z,1.87
2023-03-14T08:23:26.653Z,1.77
2023-03-14T08:25:44.940Z,1.60
2023-03-14T08:28:20.474Z,2.00
2023-03-14T08:30:23.174Z,1.57
2023-03-14T08:32:25.057Z,1.77
2023-03-14T08:34:41.171Z,1.57
2023-03-14T08:37:19.637Z,2.23
2023-03-14T08:39:36.285Z,1.10
2023-03-14T08:42:05.191Z,0.80
2023-03-14T08:44:07.436Z,0.95
2023-03-14T08:46:11.774Z,1.30
2023-03-14T08:48:19.146Z,1.20
2023-03-14T08:52:57.584Z,1.10
2023-03-14T08:54:59.291Z,0.93
2023-03-14T08:57:02.238Z,1.10
2023-03-14T08:59:22.358Z,1.60
2023-03-14T09:01:45.443Z,1.40
2023-03-14T09:03:50.354Z,1.00
2023-03-14T09:06:10.985Z,1.00
2023-03-14T09:08:15.173Z,1.30
2023-03-14T09:10:17.237Z,1.30
2023-03-14T09:15:29.289Z,1.30
2023-03-14T09:17:37.171Z,1.08
2023-03-14T09:19:47.944Z,1.10
2023-03-14T09:22:20.328Z,1.10
2023-03-14T09:24:49.006Z,1.00
2023-03-14T09:26:50.597Z,0.98
2023-03-14T09:28:52.148Z,1.08
2023-03-14T09:31:16.867Z,1.20
2023-03-14T09:33:19.070Z,0.80
2023-03-14T09:35:20.653Z,1.10
2023-03-14T09:37:31.250Z,0.90
2023-03-14T09:39:52.308Z,1.13
2023-03-14T09:42:25.986Z,1.00
2023-03-14T09:49:52.831Z,0.83
2023-03-14T09:54:13.214Z,0.87
2023-03-14T09:55:38.471Z,0.80
2023-03-14T10:00:39.836Z,0.65
2023-03-14T10:03:32.904Z,1.03
2023-03-14T10:05:48.409Z,0.80
2023-03-14T10:08:06.029Z,0.80
2023-03-14T10:10:12.062Z,0.93
2023-03-14T10:12:20.225Z,0.80
2023-03-14T10:15:16.314Z,1.07
2023-03-14T10:17:43.403Z,1.10
2023-03-14T10:19:59.196Z,3.50
2023-03-14T10:24:56.230Z,0.93
2023-03-14T10:27:19.751Z,1.25
2023-03-14T10:30:03.512Z,0.90
2023-03-14T10:32:20.335Z,1.00
2023-03-14T10:34:30.807Z,0.83
2023-03-14T10:37:27.452Z,1.13
2023-03-14T10:39:56.579Z,1.23
2023-03-14T10:42:26.181Z,0.90
2023-03-14T10:45:10.377Z,0.90
2023-03-14T10:47:31.860Z,1.13
2023-03-14T10:53:01.380Z,0.80
2023-03-14T10:55:40.706Z,0.80
2023-03-14T10:57:48.338Z,1.10
2023-03-14T10:59:50.948Z,1.10
2023-03-14T11:02:40.173Z,1.43
2023-03-14T11:05:45.119Z,0.83
2023-03-14T11:11:24.740Z,1.27
2023-03-14T11:13:55.237Z,0.70
2023-03-14T11:16:25.017Z,1.00
2023-03-14T11:24:26.780Z,1.02
2023-03-14T11:26:59.954Z,0.97
2023-03-14T11:30:00.267Z,1.10
2023-03-14T11:32:08.874Z,0.90
2023-03-14T11:35:02.437Z,1.40
2023-03-14T11:37:36.712Z,1.20
2023-03-14T11:40:19.125Z,1.10
2023-03-14T11:44:54.653Z,1.10
2023-03-14T11:50:39.569Z,1.10
2023-03-14T11:55:41.568Z,1.27
2023-03-14T11:59:00.859Z,1.20
2023-03-14T12:47:36.996Z,0.60
2023-03-14T12:50:08.285Z,0.77
2023-03-14T12:52:15.636Z,0.80
2023-03-14T12:54:34.760Z,0.83
2023-03-14T12:56:46.535Z,0.90
2023-03-14T12:59:06.793Z,0.80
2023-03-14T13:01:17.759Z,0.80
2023-03-14T13:03:22.076Z,0.70
2023-03-14T13:05:26.810Z,1.60
2023-03-14T13:07:35.079Z,0.90
2023-03-14T13:09:54.977Z,0.90
2023-03-14T13:12:02.663Z,0.73
2023-03-14T13:14:11.110Z,1.00
2023-03-14T13:16:17.567Z,1.57
2023-03-14T13:18:27.167Z,1.03
2023-03-14T13:20:34.635Z,1.20
2023-03-14T13:22:36.212Z,1.00
2023-03-14T13:24:37.764Z,2.23
2023-03-14T13:26:43.526Z,2.37
2023-03-14T13:28:45.194Z,1.27
2023-03-14T13:30:48.810Z,1.80
2023-03-14T13:32:52.198Z,1.20
2023-03-14T13:34:57.509Z,1.42
2023-03-14T13:37:00.665Z,1.20
2023-03-14T13:39:03.679Z,1.47
2023-03-14T13:41:07.688Z,1.30
2023-03-14T13:43:16.474Z,1.27
2023-03-14T13:45:20.499Z,2.75
2023-03-14T13:47:25.275Z,1.60
2023-03-14T13:49:28.835Z,1.20
2023-03-14T13:51:31.385Z,1.30
2023-03-14T13:53:43.915Z,1.57
2023-03-14T13:55:45.618Z,1.40
2023-03-14T13:57:48.891Z,1.50
2023-03-14T14:00:00.926Z,1.47
2023-03-14T14:02:11.886Z,1.13
2023-03-14T14:04:19.065Z,1.10
2023-03-14T14:06:27.433Z,1.13
2023-03-14T14:08:31.467Z,1.00
2023-03-14T14:10:38.181Z,0.95
2023-03-14T14:12:44.810Z,1.43
2023-03-14T14:14:50.760Z,1.10
2023-03-14T14:16:53.743Z,1.30
2023-03-14T14:18:58.023Z,1.40
2023-03-14T14:20:59.853Z,1.13
2023-03-14T14:23:03.708Z,1.17
2023-03-14T14:25:06.680Z,1.35
2023-03-14T14:27:15.271Z,1.17
2023-03-14T14:29:26.964Z,1.30
2023-03-14T14:31:28.673Z,1.30
2023-03-14T14:33:38.457Z,1.00
2023-03-14T14:35:40.358Z,1.23
2023-03-14T14:37:44.537Z,1.30
2023-03-14T14:39:46.358Z,1.40
2023-03-14T14:41:50.346Z,0.88
2023-03-14T14:43:53.579Z,1.10
2023-03-14T14:45:56.522Z,0.77
2023-03-14T14:48:04.293Z,1.00
2023-03-14T14:50:21.828Z,0.98
2023-03-14T14:52:34.731Z,1.27
2023-03-14T14:54:39.736Z,0.95
2023-03-14T14:56:41.471Z,0.87
2023-03-14T14:58:46.265Z,0.77
2023-03-14T15:00:55.474Z,1.13
2023-03-14T15:03:00.911Z,0.90
2023-03-14T15:05:02.772Z,0.97
2023-03-14T15:07:04.430Z,1.27
2023-03-14T15:09:06.581Z,1.23
2023-03-14T15:11:15.697Z,1.55
2023-03-14T15:13:17.329Z,1.25
2023-03-14T15:15:19.332Z,1.00
2023-03-14T15:17:22.539Z,1.10
2023-03-14T15:19:26.811Z,1.00
2023-03-14T15:21:29.352Z,1.05
2023-03-14T15:23:30.902Z,2.90
2023-03-14T15:25:53.528Z,2.10
2023-03-14T15:27:54.033Z,2.30
2023-03-14T15:29:55.640Z,1.50
2023-03-14T15:31:57.420Z,1.30
2023-03-14T15:34:00.373Z,1.30
2023-03-14T15:36:01.998Z,1.40
2023-03-14T15:38:04.140Z,1.00
2023-03-14T15:40:06.979Z,1.00
2023-03-14T15:42:09.000Z,1.30
2023-03-14T15:44:10.649Z,1.37
2023-03-14T15:46:13.370Z,1.05
2023-03-14T15:48:17.120Z,1.40
2023-03-14T15:50:20.105Z,1.47
2023-03-14T15:52:21.649Z,1.10
2023-03-14T15:54:23.156Z,1.20
2023-03-14T15:56:24.682Z,1.20
2023-03-14T15:58:26.350Z,1.10
2023-03-14T16:00:28.144Z,1.20
2023-03-14T16:02:30.207Z,0.90
2023-03-14T16:04:31.801Z,1.17
2023-03-14T16:06:34.710Z,1.80
2023-03-14T16:08:36.371Z,1.60
2023-03-14T16:10:37.927Z,1.30
2023-03-14T16:12:40.175Z,1.07
2023-03-14T16:14:41.803Z,0.93
2023-03-14T16:16:43.383Z,1.67
2023-03-14T16:18:44.937Z,1.20
2023-03-14T16:20:52.701Z,1.33
2023-03-14T16:22:55.596Z,1.33
2023-03-14T16:24:57.234Z,1.60
2023-03-14T16:26:59.068Z,1.00
2023-03-14T16:29:02.038Z,1.20
2023-03-14T16:31:05.260Z,1.35
2023-03-14T16:33:11.383Z,1.33
2023-03-14T16:35:13.676Z,0.97
2023-03-14T16:37:15.188Z,0.90
2023-03-14T16:39:18.783Z,1.02
2023-03-14T16:41:23.181Z,1.17
2023-03-14T16:43:24.817Z,1.13
2023-03-14T16:45:26.566Z,1.15
2023-03-14T16:47:28.078Z,1.35
2023-03-14T16:49:29.617Z,1.13
2023-03-14T16:51:33.876Z,1.55
2023-03-14T16:53:35.846Z,1.05
2023-03-14T16:55:42.434Z,1.50
2023-03-14T16:57:44.392Z,1.45
2023-03-14T16:59:45.907Z,1.27
2023-03-14T17:01:47.504Z,1.48
2023-03-14T17:03:50.792Z,1.40
2023-03-14T17:05:53.004Z,1.50
2023-03-14T17:07:54.554Z,1.00
2023-03-14T17:09:56.166Z,1.67
2023-03-14T17:11:59.085Z,1.70
2023-03-14T17:14:01.456Z,1.23
2023-03-14T17:16:04.010Z,1.85
2023-03-14T17:18:06.328Z,1.30
2023-03-14T17:20:09.485Z,1.30
2023-03-14T17:22:23.326Z,1.40
2023-03-14T17:24:25.714Z,1.70
2023-03-14T17:26:27.366Z,1.30
2023-03-14T17:28:30.489Z,1.52
2023-03-14T17:30:32.109Z,1.50
2023-03-14T17:32:33.743Z,1.85
2023-03-14T17:34:35.518Z,1.92
2023-03-14T17:36:37.121Z,1.75
2023-03-14T17:38:39.344Z,1.90
2023-03-14T17:40:40.900Z,1.40
2023-03-14T17:42:42.723Z,1.80
2023-03-14T17:44:45.582Z,1.60
2023-03-14T17:46:47.284Z,1.83
2023-03-14T17:48:49.209Z,1.88
2023-03-14T17:50:52.417Z,1.83
2023-03-14T17:52:54.499Z,1.75
2023-03-14T17:54:56.044Z,2.17
2023-03-14T17:56:58.396Z,1.80
2023-03-14T17:59:00.045Z,2.07
2023-03-14T18:01:10.633Z,2.80
2023-03-14T18:03:12.165Z,2.13
2023-03-14T18:05:13.775Z,1.70
2023-03-14T18:07:15.464Z,2.13
2023-03-14T18:09:17.530Z,2.00
2023-03-14T18:11:19.138Z,1.70
2023-03-14T18:13:22.000Z,1.50
2023-03-14T18:15:23.536Z,1.30
2023-03-14T18:17:26.889Z,1.33
2023-03-14T18:19:28.551Z,1.40
2023-03-14T18:21:30.081Z,1.35
2023-03-14T18:23:31.653Z,1.43
2023-03-14T18:25:33.300Z,1.20
2023-03-14T18:27:35.097Z,1.77
2023-03-14T18:29:37.116Z,1.75
2023-03-14T18:31:38.698Z,1.95
2023-03-14T18:33:42.041Z,2.37
2023-03-14T18:35:43.720Z,2.60
2023-03-14T18:37:46.209Z,3.10
2023-03-14T18:39:50.937Z,3.90
2023-03-14T18:41:52.600Z,4.63
2023-03-14T18:43:54.519Z,6.40
2023-03-14T18:45:57.799Z,4.95
2023-03-14T18:47:59.382Z,7.28
2023-03-14T18:50:02.647Z,3.67
2023-03-14T18:52:04.655Z,4.27
2023-03-14T18:54:09.976Z,3.08
2023-03-14T18:56:13.718Z,2.65
2023-03-14T18:58:15.484Z,5.10
2023-03-14T19:00:17.853Z,8.02
2023-03-14T19:02:19.460Z,4.78
2023-03-14T19:04:21.074Z,5.45
2023-03-14T19:06:27.983Z,6.80
2023-03-14T19:08:29.685Z,9.95
2023-03-14T19:10:31.276Z,5.72
2023-03-14T19:12:32.842Z,3.50
2023-03-14T19:14:34.659Z,2.15
2023-03-14T19:16:36.281Z,1.50
2023-03-14T19:18:37.949Z,1.67
2023-03-14T19:20:41.085Z,2.10
2023-03-14T19:22:43.975Z,1.00
2023-03-14T19:24:45.545Z,1.15
2023-03-14T19:26:47.261Z,1.20
2023-03-14T19:28:48.799Z,1.07
2023-03-14T19:30:51.568Z,0.90
2023-03-14T19:32:53.399Z,0.90
2023-03-14T19:34:58.155Z,0.95
2023-03-14T19:36:59.737Z,0.77
2023-03-14T19:39:04.385Z,0.93
2023-03-14T19:41:06.511Z,0.90
2023-03-14T19:43:08.648Z,1.10
2023-03-14T19:45:11.233Z,1.20
2023-03-14T19:47:12.841Z,0.90
2023-03-14T19:49:14.493Z,1.00
2023-03-14T19:51:17.006Z,1.20
2023-03-14T19:53:18.522Z,1.52
2023-03-14T19:55:21.717Z,1.33
2023-03-14T19:57:23.233Z,1.20
2023-03-14T19:59:24.914Z,1.15
2023-03-14T20:01:26.580Z,1.00
2023-03-14T20:03:28.208Z,1.20
2023-03-14T20:05:29.847Z,1.13
2023-03-14T20:07:31.470Z,1.20
2023-03-14T20:09:33.074Z,1.42
2023-03-14T20:11:36.376Z,1.50
2023-03-14T20:13:38.170Z,1.42
2023-03-14T20:15:40.239Z,1.63
2023-03-14T20:17:41.755Z,1.77
2023-03-14T20:19:43.652Z,2.33
2023-03-14T20:21:45.269Z,2.50
2023-03-14T20:23:47.913Z,2.65
2023-03-14T20:25:56.026Z,2.10
2023-03-14T20:27:58.990Z,3.13
2023-03-14T20:30:00.828Z,2.88
2023-03-14T20:32:04.566Z,2.33
2023-03-14T20:34:06.346Z,2.60
2023-03-14T20:36:09.088Z,3.50
2023-03-14T20:38:10.791Z,2.90
2023-03-14T20:40:13.011Z,3.35
2023-03-14T20:42:14.710Z,3.20
2023-03-14T20:44:17.715Z,2.50
2023-03-14T20:46:19.433Z,3.00
2023-03-14T20:48:21.524Z,2.60
2023-03-14T20:50:23.181Z,2.70
2023-03-14T20:52:24.826Z,3.58
2023-03-14T20:54:26.471Z,3.30
2023-03-14T20:56:28.066Z,3.15
2023-03-14T20:58:30.030Z,3.20
2023-03-14T21:00:33.065Z,3.08
2023-03-14T21:02:34.688Z,2.85
2023-03-14T21:04:36.393Z,2.88
2023-03-14T21:06:37.995Z,2.28
2023-03-14T21:08:39.754Z,2.80
2023-03-14T21:10:41.393Z,1.92
2023-03-14T21:12:43.123Z,2.40
2023-03-14T21:14:44.965Z,2.00
2023-03-14T21:16:48.351Z,2.10
2023-03-14T21:18:49.946Z,2.10
2023-03-14T21:20:53.382Z,3.15
2023-03-14T21:22:55.275Z,2.67
2023-03-14T21:24:56.872Z,2.30
2023-03-14T21:27:00.474Z,2.33
2023-03-14T21:29:04.516Z,2.35
2023-03-14T21:31:09.816Z,2.40
2023-03-14T21:33:12.795Z,3.15
2023-03-14T21:35:14.566Z,3.13
2023-03-14T21:37:16.202Z,4.07
2023-03-14T21:39:17.979Z,3.15
2023-03-14T21:41:19.666Z,2.85
2023-03-14T21:43:21.217Z,2.83
2023-03-14T21:45:24.024Z,3.03
2023-03-14T21:47:25.599Z,2.85
2023-03-14T21:49:28.508Z,2.40
2023-03-14T21:51:30.240Z,2.50
2023-03-14T21:53:32.044Z,2.25
2023-03-14T21:55:33.559Z,2.50
2023-03-14T21:57:35.339Z,2.80
2023-03-14T21:59:38.337Z,2.25
2023-03-14T22:01:49.006Z,1.88
2023-03-14T22:03:50.710Z,2.80
2023-03-14T22:05:53.677Z,2.35
2023-03-14T22:07:55.584Z,2.78
2023-03-14T22:09:57.240Z,2.88
2023-03-14T22:11:59.204Z,2.90
2023-03-14T22:14:01.170Z,3.60
2023-03-14T22:16:02.904Z,4.75
2023-03-14T22:18:04.553Z,4.35
2023-03-14T22:20:09.989Z,5.22
2023-03-14T22:22:12.984Z,4.43
2023-03-14T22:24:14.891Z,3.10
2023-03-14T22:26:16.963Z,3.30
2023-03-14T22:28:18.979Z,4.10
2023-03-14T22:30:20.644Z,4.35
2023-03-14T22:32:22.217Z,3.33
2023-03-14T22:34:23.779Z,3.53
2023-03-14T22:36:25.658Z,2.60
2023-03-14T22:38:28.628Z,2.72
2023-03-14T22:40:30.302Z,2.45
2023-03-14T22:42:32.027Z,2.92
2023-03-14T22:44:33.898Z,2.40
2023-03-14T22:46:35.655Z,2.92
2023-03-14T22:48:37.170Z,2.47
2023-03-14T22:50:39.086Z,2.10
2023-03-14T22:52:40.678Z,2.70
2023-03-14T22:54:43.686Z,1.80
2023-03-14T22:56:45.223Z,1.85
2023-03-14T22:58:46.908Z,2.42
2023-03-14T23:00:48.449Z,2.13
2023-03-14T23:02:50.121Z,2.42
2023-03-14T23:04:51.683Z,2.70
2023-03-14T23:06:53.229Z,2.08
2023-03-14T23:08:54.979Z,2.25
2023-03-14T23:11:01.794Z,2.65
2023-03-14T23:13:03.365Z,2.75
2023-03-14T23:15:05.683Z,2.10
2023-03-14T23:17:07.781Z,2.33
2023-03-14T23:19:09.446Z,2.42
2023-03-14T23:21:13.461Z,2.42
2023-03-14T23:23:15.052Z,2.58
2023-03-14T23:25:17.077Z,2.35
2023-03-14T23:27:19.960Z,2.08
2023-03-14T23:29:21.558Z,2.80
2023-03-14T23:31:23.237Z,2.15
2023-03-14T23:33:26.383Z,2.10
2023-03-14T23:35:28.086Z,2.70
2023-03-14T23:37:29.632Z,3.80
2023-03-14T23:39:31.204Z,7.43
2023-03-14T23:41:33.172Z,6.93
2023-03-14T23:43:36.147Z,4.10
2023-03-14T23:45:37.714Z,2.80
2023-03-14T23:47:39.293Z,23.67
2023-03-14T23:49:41.068Z,39.67
2023-03-14T23:51:42.592Z,20.02
2023-03-14T23:53:44.410Z,10.15
2023-03-14T23:55:45.953Z,10.00
2023-03-14T23:57:47.558Z,16.65
2023-03-14T23:59:50.559Z,10.10
